Minton, Canada
Current Conditions -  °F | °C
As of 10:15 AM on Thursday 18 Dec 2014 (Local Time) from KD50 Reporting Station
Haze Haze  
Wind Chill: 13°   Ceiling: 700
Heat Index: 21°   Visibility: 6mi
Dew Point: 21°   Wind: 7mph
Humidity: 100%   Direction: 170°S
Pressure: 30"   Gusts: NA
Location:  49.17°N, 104.58°W
Report Text: KD50 181615Z AUTO 17006KT 6SM BR OVC007 M06/M06 A3000 RMK AO2
Loading
Personal Weather Stations






























Interactive Weather Map New forecast layout! Learn more

10-Day Weather Forecast

Advertisements
Track Severe Weather on mobile